Time;durP1;ratioP1;P1;durP2;ratioP2;P2;SDS_P1;SDS_P2;PMS_P1;PMS_P2;Temp;Humidity;BMP_temperature;BMP_pressure;BME280_temperature;BME280_humidity;BME280_pressure;Samples;Min_cycle;Max_cycle;Signal;HPM_P1;HPM_P2
2023/11/11 00:02:12;;;;;;;56.92;52.70;;;10.40;99.90;;;;;;5013579;28;20034;-68
2023/11/11 00:04:38;;;;;;;53.40;49.45;;;10.30;99.90;;;;;;5014140;28;20049;-67
2023/11/11 00:07:05;;;;;;;55.40;50.83;;;10.30;99.90;;;;;;5013585;28;20041;-67
2023/11/11 00:09:31;;;;;;;57.78;53.70;;;10.30;99.90;;;;;;5014058;28;20064;-67
2023/11/11 00:11:58;;;;;;;45.95;41.85;;;10.30;99.90;;;;;;5013580;28;20030;-67
2023/11/11 00:14:24;;;;;;;44.45;40.15;;;10.30;99.90;;;;;;5013873;28;20107;-68
2023/11/11 00:16:51;;;;;;;42.92;39.20;;;10.30;99.90;;;;;;5013106;28;20407;-67
2023/11/11 00:19:17;;;;;;;41.42;37.90;;;10.30;99.90;;;;;;5013963;28;20481;-67
2023/11/11 00:21:49;;;;;;;54.63;49.88;;;10.30;99.90;;;;;;5013479;28;20040;-67
2023/11/11 00:24:15;;;;;;;48.38;43.83;;;10.30;99.90;;;;;;5013702;28;20057;-67
2023/11/11 00:26:42;;;;;;;43.85;40.25;;;10.20;99.90;;;;;;5013234;28;20470;-67
2023/11/11 00:29:08;;;;;;;42.95;38.83;;;10.20;99.90;;;;;;5012334;28;20049;-68
2023/11/11 00:31:36;;;;;;;47.65;43.67;;;10.20;99.90;;;;;;5011565;28;20499;-68
2023/11/11 00:34:02;;;;;;;44.05;39.55;;;10.20;99.90;;;;;;5013860;28;20475;-67
2023/11/11 00:36:28;;;;;;;43.10;39.53;;;10.10;99.90;;;;;;5013200;28;20034;-68
2023/11/11 00:38:54;;;;;;;40.53;36.35;;;10.10;99.90;;;;;;5013460;28;20467;-68
2023/11/11 00:41:21;;;;;;;37.30;30.98;;;10.10;99.90;;;;;;5012809;28;20042;-67
2023/11/11 00:43:47;;;;;;;32.15;28.85;;;10.10;99.90;;;;;;5013401;28;20403;-68
2023/11/11 00:46:13;;;;;;;34.35;27.98;;;10.10;99.90;;;;;;5012623;28;20046;-68
2023/11/11 00:48:41;;;;;;;32.13;28.83;;;10.10;99.90;;;;;;5013418;28;20041;-68
2023/11/11 00:51:07;;;;;;;34.72;31.17;;;10.10;99.90;;;;;;5012996;28;20057;-68
2023/11/11 00:53:33;;;;;;;39.33;29.50;;;10.20;99.90;;;;;;5013524;28;20029;-68
2023/11/11 00:56:00;;;;;;;34.42;28.02;;;10.20;99.90;;;;;;5004136;28;20038;-68
2023/11/11 00:58:26;;;;;;;34.08;29.80;;;10.20;99.90;;;;;;4994194;28;20049;-68
2023/11/11 01:00:52;;;;;;;33.95;30.15;;;10.10;99.90;;;;;;4992942;28;20035;-68
2023/11/11 01:03:18;;;;;;;31.90;27.30;;;10.00;99.90;;;;;;4993769;28;20046;-67
2023/11/11 01:05:44;;;;;;;35.83;29.35;;;9.90;99.90;;;;;;4993658;28;20042;-67
2023/11/11 01:08:11;;;;;;;31.80;28.50;;;9.90;99.90;;;;;;4993922;28;20042;-67
2023/11/11 01:10:38;;;;;;;32.60;27.48;;;9.80;99.90;;;;;;4992675;28;20023;-67
2023/11/11 01:13:04;;;;;;;31.70;25.27;;;9.80;99.90;;;;;;4993548;28;20049;-67
2023/11/11 01:15:30;;;;;;;30.30;26.73;;;9.80;99.90;;;;;;4992794;28;20042;-67
2023/11/11 01:17:56;;;;;;;34.75;25.73;;;9.80;99.90;;;;;;4993338;28;20029;-68
2023/11/11 01:20:23;;;;;;;32.70;26.58;;;9.80;99.90;;;;;;4991873;28;20027;-67
2023/11/11 01:22:49;;;;;;;29.40;24.83;;;9.80;99.90;;;;;;4993289;28;20049;-67
2023/11/11 01:25:16;;;;;;;35.58;27.80;;;9.80;99.90;;;;;;4992764;28;20122;-68
2023/11/11 01:27:42;;;;;;;38.97;31.33;;;9.80;99.90;;;;;;4993152;28;20045;-67
2023/11/11 01:30:08;;;;;;;35.67;32.10;;;9.80;99.90;;;;;;4992745;28;20023;-67
2023/11/11 01:32:35;;;;;;;32.63;29.70;;;9.80;99.90;;;;;;4992903;28;20030;-68
2023/11/11 01:35:01;;;;;;;34.35;30.83;;;9.80;99.90;;;;;;4993169;28;20041;-67
2023/11/11 01:37:27;;;;;;;35.20;29.20;;;9.80;99.90;;;;;;4992689;28;20030;-67
2023/11/11 01:39:54;;;;;;;33.03;29.80;;;9.80;99.90;;;;;;4992944;28;20026;-68
2023/11/11 01:42:20;;;;;;;32.30;24.65;;;9.80;99.90;;;;;;4993048;28;20618;-67
2023/11/11 01:44:47;;;;;;;30.13;23.67;;;9.80;99.90;;;;;;4993167;28;20027;-68
2023/11/11 01:47:13;;;;;;;30.92;22.70;;;9.70;99.90;;;;;;4992229;28;20364;-68
2023/11/11 01:49:39;;;;;;;32.03;21.75;;;9.70;99.90;;;;;;4993176;28;20042;-67
2023/11/11 01:52:06;;;;;;;38.90;22.98;;;9.70;99.90;;;;;;4991292;28;20357;-68
2023/11/11 01:54:33;;;;;;;28.38;21.83;;;9.70;99.90;;;;;;4992620;28;20030;-68
2023/11/11 01:56:59;;;;;;;29.50;24.90;;;9.70;99.90;;;;;;5007383;28;20030;-67
2023/11/11 01:59:26;;;;;;;36.35;25.20;;;9.60;99.90;;;;;;5010991;28;20042;-67
2023/11/11 02:01:52;;;;;;;32.15;22.17;;;9.60;99.90;;;;;;5009688;28;20030;-67
2023/11/11 02:04:19;;;;;;;32.25;21.42;;;9.60;99.90;;;;;;5012463;28;20038;-67
2023/11/11 02:06:46;;;;;;;27.92;21.48;;;9.60;99.90;;;;;;5010447;28;20434;-67
2023/11/11 02:09:15;;;;;;;27.90;22.55;;;9.60;99.90;;;;;;5014902;28;20503;-67
2023/11/11 02:11:41;;;;;;;33.30;24.50;;;9.60;99.90;;;;;;5014848;28;20478;-67
2023/11/11 02:14:08;;;;;;;33.80;25.15;;;9.70;99.90;;;;;;5015022;28;20034;-67
2023/11/11 02:16:34;;;;;;;30.98;22.77;;;9.60;99.90;;;;;;5015401;28;20403;-67
2023/11/11 02:19:01;;;;;;;31.90;24.10;;;9.60;99.90;;;;;;5015234;28;20034;-67
2023/11/11 02:21:31;;;;;;;39.42;26.73;;;9.60;99.90;;;;;;5015620;28;20026;-67
2023/11/11 02:23:59;;;;;;;31.57;26.33;;;9.50;99.90;;;;;;5015647;28;20406;-67
2023/11/11 02:26:25;;;;;;;32.33;28.92;;;9.50;99.90;;;;;;5015962;28;20402;-68
2023/11/11 02:28:52;;;;;;;28.10;23.50;;;9.40;99.90;;;;;;5014169;28;20050;-67
2023/11/11 02:31:18;;;;;;;31.27;22.15;;;9.40;99.90;;;;;;5015278;28;20049;-67
2023/11/11 02:33:44;;;;;;;40.67;21.73;;;9.40;99.90;;;;;;5015656;28;20037;-68
2023/11/11 02:36:11;;;;;;;33.47;22.63;;;9.40;99.90;;;;;;5015374;28;20026;-67
2023/11/11 02:38:37;;;;;;;36.10;26.05;;;9.40;99.90;;;;;;5015622;28;20037;-67
2023/11/11 02:41:03;;;;;;;33.35;25.65;;;9.30;99.90;;;;;;5015221;28;20037;-67
2023/11/11 02:43:29;;;;;;;33.08;26.77;;;9.30;99.90;;;;;;5015785;28;20037;-67
2023/11/11 02:45:55;;;;;;;31.55;22.60;;;9.30;99.90;;;;;;5015004;28;20038;-67
2023/11/11 02:48:21;;;;;;;25.13;20.23;;;9.30;99.90;;;;;;5015641;28;20034;-67
2023/11/11 02:50:47;;;;;;;26.65;19.42;;;9.30;99.90;;;;;;5015349;28;20356;-67
2023/11/11 02:53:13;;;;;;;32.28;21.63;;;9.30;99.90;;;;;;5015248;28;20073;-67
2023/11/11 02:55:39;;;;;;;30.75;21.27;;;9.40;99.90;;;;;;5008761;28;20471;-67
2023/11/11 02:58:06;;;;;;;33.92;22.63;;;9.40;99.90;;;;;;4995979;28;20026;-67
2023/11/11 03:00:32;;;;;;;36.65;23.02;;;9.40;99.90;;;;;;4995501;28;20034;-67
2023/11/11 03:02:59;;;;;;;33.00;21.33;;;9.40;99.90;;;;;;4996160;28;20049;-67
2023/11/11 03:05:25;;;;;;;33.70;22.23;;;9.40;99.90;;;;;;4995436;28;20031;-67
2023/11/11 03:07:52;;;;;;;39.90;23.33;;;9.40;99.90;;;;;;4995429;28;20042;-67
2023/11/11 03:10:18;;;;;;;36.25;24.30;;;9.40;99.90;;;;;;4995960;28;20065;-68
2023/11/11 03:12:44;;;;;;;35.53;24.15;;;9.40;99.90;;;;;;4996176;28;20450;-67
2023/11/11 03:15:10;;;;;;;35.40;24.63;;;9.40;99.90;;;;;;4995011;28;20038;-67
2023/11/11 03:17:36;;;;;;;31.05;23.90;;;9.30;99.90;;;;;;4995475;28;20041;-68
2023/11/11 03:20:03;;;;;;;33.75;22.95;;;9.40;99.90;;;;;;4995407;28;20391;-68
2023/11/11 03:22:29;;;;;;;32.08;22.23;;;9.40;99.90;;;;;;4995142;28;20042;-67
2023/11/11 03:24:55;;;;;;;35.40;19.98;;;9.40;99.90;;;;;;4995433;28;20046;-67
2023/11/11 03:27:21;;;;;;;26.98;20.13;;;9.30;99.90;;;;;;4995098;28;20045;-68
2023/11/11 03:29:47;;;;;;;31.08;22.75;;;9.30;99.90;;;;;;4995204;28;20038;-68
2023/11/11 03:32:14;;;;;;;33.95;23.15;;;9.40;99.90;;;;;;4994654;28;20038;-67
2023/11/11 03:34:40;;;;;;;30.77;20.60;;;9.40;99.90;;;;;;4995607;28;20049;-68
2023/11/11 03:37:06;;;;;;;32.53;25.65;;;9.40;99.90;;;;;;4994638;28;20117;-68
2023/11/11 03:39:32;;;;;;;25.58;21.42;;;9.30;99.90;;;;;;4995263;28;20030;-67
2023/11/11 03:41:58;;;;;;;34.15;23.40;;;9.30;99.90;;;;;;4994935;28;20050;-67
2023/11/11 03:44:25;;;;;;;33.60;24.58;;;9.30;99.90;;;;;;4994994;28;20093;-67
2023/11/11 03:46:51;;;;;;;42.25;36.75;;;9.30;99.90;;;;;;4994605;28;20061;-68
2023/11/11 03:49:17;;;;;;;42.40;30.98;;;9.30;99.90;;;;;;4995045;28;20064;-67
2023/11/11 03:51:43;;;;;;;34.90;21.67;;;9.20;99.90;;;;;;4994943;28;20054;-67
2023/11/11 03:54:09;;;;;;;32.60;20.63;;;9.10;99.90;;;;;;4995584;28;20041;-67
2023/11/11 03:56:35;;;;;;;31.75;19.27;;;9.00;99.90;;;;;;5006115;28;20463;-67
2023/11/11 03:59:02;;;;;;;35.80;22.10;;;9.10;99.90;;;;;;5014538;28;20041;-68
2023/11/11 04:01:28;;;;;;;34.97;22.42;;;9.20;99.90;;;;;;5013389;28;20540;-67
2023/11/11 04:03:54;;;;;;;32.13;21.77;;;9.20;99.90;;;;;;5012771;28;20038;-68
2023/11/11 04:06:20;;;;;;;25.85;21.30;;;9.20;99.90;;;;;;5013699;28;20481;-68
2023/11/11 04:08:46;;;;;;;32.95;20.02;;;9.20;99.90;;;;;;5014058;28;20045;-68
2023/11/11 04:11:12;;;;;;;28.77;21.60;;;9.20;99.90;;;;;;5013698;28;20489;-67
2023/11/11 04:13:39;;;;;;;27.63;23.08;;;9.10;99.90;;;;;;5014145;28;20034;-67
2023/11/11 04:16:09;;;;;;;27.45;21.73;;;9.10;99.90;;;;;;5013194;28;20037;-67
2023/11/11 04:18:36;;;;;;;34.50;23.73;;;9.10;99.90;;;;;;5013567;28;20042;-67
2023/11/11 04:21:03;;;;;;;32.05;22.92;;;9.20;99.90;;;;;;5013268;28;20281;-67
2023/11/11 04:23:29;;;;;;;35.83;20.48;;;9.10;99.90;;;;;;4996297;28;20049;-67
2023/11/11 04:25:56;;;;;;;30.02;20.73;;;9.10;99.90;;;;;;5013376;28;20046;-67
2023/11/11 04:28:28;;;;;;;37.85;20.60;;;9.10;99.90;;;;;;5013855;28;20038;-67
2023/11/11 04:30:54;;;;;;;24.23;21.65;;;9.10;99.90;;;;;;5012352;28;20026;-67
2023/11/11 04:33:20;;;;;;;40.95;27.75;;;9.10;99.90;;;;;;5013327;28;20029;-68
2023/11/11 04:35:46;;;;;;;32.30;23.95;;;9.10;99.90;;;;;;5013169;28;20025;-67
2023/11/11 04:38:13;;;;;;;38.15;27.67;;;9.00;99.90;;;;;;5013730;28;20026;-67
2023/11/11 04:40:39;;;;;;;31.30;21.33;;;9.00;99.90;;;;;;5013255;28;20041;-67
2023/11/11 04:43:05;;;;;;;41.00;25.42;;;8.90;99.90;;;;;;5013613;28;20065;-67
2023/11/11 04:45:31;;;;;;;37.45;22.58;;;8.80;99.90;;;;;;5012715;28;20045;-67
2023/11/11 04:47:58;;;;;;;28.70;18.10;;;8.80;99.90;;;;;;5013106;28;20030;-70
2023/11/11 04:50:24;;;;;;;34.47;21.40;;;8.80;99.90;;;;;;5013043;28;20549;-67
2023/11/11 04:52:51;;;;;;;28.63;21.20;;;8.80;99.90;;;;;;5013452;28;20398;-68
2023/11/11 04:55:18;;;;;;;32.63;25.17;;;8.80;99.90;;;;;;5009240;28;20030;-67
2023/11/11 04:57:44;;;;;;;31.42;21.65;;;8.80;99.90;;;;;;4992697;28;20034;-67
2023/11/11 05:00:10;;;;;;;28.15;18.77;;;8.80;99.90;;;;;;4992756;28;20030;-67
2023/11/11 05:02:40;;;;;;;32.95;19.25;;;8.80;99.90;;;;;;4993326;28;20038;-67
2023/11/11 05:05:10;;;;;;;29.33;19.55;;;8.80;99.90;;;;;;4993611;28;20394;-68
2023/11/11 05:07:39;;;;;;;33.25;20.17;;;8.70;99.90;;;;;;5013435;28;20466;-68
2023/11/11 05:10:09;;;;;;;31.33;19.60;;;8.70;99.90;;;;;;5011187;28;20057;-68
2023/11/11 05:12:37;;;;;;;33.85;19.75;;;8.70;99.90;;;;;;5013024;28;20042;-67
2023/11/11 05:15:12;;;;;;;28.65;20.10;;;8.70;99.90;;;;;;5012011;28;20049;-67
2023/11/11 05:17:38;;;;;;;28.98;20.48;;;8.70;99.90;;;;;;5012706;28;20056;-67
2023/11/11 05:20:05;;;;;;;30.08;18.67;;;8.70;99.90;;;;;;5011757;28;20061;-67
2023/11/11 05:22:31;;;;;;;30.85;19.52;;;8.70;99.90;;;;;;5012672;28;20065;-67
2023/11/11 05:24:57;;;;;;;29.10;21.30;;;8.70;99.90;;;;;;5012874;28;20050;-67
2023/11/11 05:27:24;;;;;;;34.20;26.45;;;8.60;99.90;;;;;;5012288;28;20463;-67
2023/11/11 05:29:50;;;;;;;31.75;20.55;;;8.70;99.90;;;;;;5012738;28;20053;-67
2023/11/11 05:32:16;;;;;;;27.63;24.35;;;8.70;99.90;;;;;;5011609;28;20071;-67
2023/11/11 05:34:45;;;;;;;28.80;21.88;;;8.60;99.90;;;;;;5011351;28;20046;-67
2023/11/11 05:37:11;;;;;;;24.92;18.30;;;8.60;99.90;;;;;;5012142;28;20053;-67
2023/11/11 05:39:37;;;;;;;28.85;19.30;;;8.60;99.90;;;;;;5012673;28;20390;-67
2023/11/11 05:42:03;;;;;;;31.27;19.23;;;8.60;99.90;;;;;;5012104;28;20038;-67
2023/11/11 05:44:29;;;;;;;26.42;17.95;;;8.70;99.90;;;;;;5011298;28;20505;-67
2023/11/11 05:46:55;;;;;;;33.55;18.73;;;8.70;99.90;;;;;;5011564;28;20056;-67
2023/11/11 05:49:21;;;;;;;32.50;19.10;;;8.60;99.90;;;;;;5012245;28;20053;-67
2023/11/11 05:51:48;;;;;;;31.17;18.55;;;8.50;99.90;;;;;;5011970;28;20034;-67
2023/11/11 05:54:16;;;;;;;31.45;19.52;;;8.50;99.90;;;;;;5012428;28;20053;-67
2023/11/11 05:56:42;;;;;;;28.08;18.08;;;8.50;99.90;;;;;;4996791;28;20118;-67
2023/11/11 05:59:08;;;;;;;30.38;19.70;;;8.50;99.90;;;;;;4993245;28;20038;-67
2023/11/11 06:01:34;;;;;;;29.08;19.42;;;8.60;99.90;;;;;;4991578;28;20487;-67
2023/11/11 06:04:01;;;;;;;29.55;19.33;;;8.50;99.90;;;;;;4992956;28;20027;-67
2023/11/11 06:06:27;;;;;;;32.28;19.92;;;8.50;99.90;;;;;;4992369;28;20031;-67
2023/11/11 06:08:53;;;;;;;27.98;17.98;;;8.50;99.90;;;;;;4991594;28;20137;-67
2023/11/11 06:11:19;;;;;;;31.33;18.98;;;8.50;99.90;;;;;;4992283;28;20035;-67
2023/11/11 06:13:45;;;;;;;34.17;22.98;;;8.50;99.90;;;;;;4992621;28;20360;-67
2023/11/11 06:16:11;;;;;;;34.92;21.88;;;8.50;99.90;;;;;;4991550;28;20046;-67
2023/11/11 06:18:37;;;;;;;34.17;18.95;;;8.50;99.90;;;;;;4992700;28;20506;-67
2023/11/11 06:21:04;;;;;;;36.30;22.58;;;8.50;99.90;;;;;;4992428;28;20038;-67
2023/11/11 06:23:30;;;;;;;28.10;18.52;;;8.50;99.90;;;;;;4991616;28;20407;-69
2023/11/11 06:25:56;;;;;;;37.45;22.80;;;8.60;99.90;;;;;;4992339;28;20380;-67
2023/11/11 06:28:22;;;;;;;40.80;30.42;;;8.50;99.90;;;;;;4992582;28;20027;-68
2023/11/11 06:30:48;;;;;;;35.75;30.20;;;8.50;99.90;;;;;;4991823;28;20472;-68
2023/11/11 06:33:14;;;;;;;32.35;26.27;;;8.50;99.90;;;;;;4992518;28;20031;-68
2023/11/11 06:35:40;;;;;;;33.63;21.48;;;8.40;99.90;;;;;;4992303;28;20045;-68
2023/11/11 06:38:06;;;;;;;43.30;34.30;;;8.40;99.90;;;;;;4992466;28;20037;-68
2023/11/11 06:40:33;;;;;;;40.88;30.92;;;8.40;99.90;;;;;;4992268;28;20037;-68
2023/11/11 06:42:59;;;;;;;34.90;30.30;;;8.40;99.90;;;;;;4993070;28;20046;-69
2023/11/11 06:45:25;;;;;;;42.78;25.95;;;8.30;99.90;;;;;;4991691;28;20031;-69
2023/11/11 06:47:51;;;;;;;28.23;21.80;;;8.30;99.90;;;;;;4992765;28;20038;-69
2023/11/11 06:50:18;;;;;;;33.88;18.70;;;8.30;99.90;;;;;;4992384;28;20042;-70
2023/11/11 06:52:44;;;;;;;33.10;26.48;;;8.30;99.90;;;;;;4992991;28;20381;-70
2023/11/11 06:55:11;;;;;;;35.80;27.25;;;8.20;99.90;;;;;;4995910;28;20053;-70
2023/11/11 06:57:38;;;;;;;33.92;23.25;;;8.30;99.90;;;;;;4995013;28;20391;-70
2023/11/11 07:00:05;;;;;;;31.58;20.27;;;8.20;99.90;;;;;;4995359;28;20034;-69
2023/11/11 07:02:31;;;;;;;33.30;19.38;;;8.30;99.90;;;;;;4995839;28;20045;-69
2023/11/11 07:05:04;;;;;;;27.70;24.13;;;8.30;99.90;;;;;;4996040;28;20037;-70
2023/11/11 07:07:31;;;;;;;31.95;22.85;;;8.30;99.90;;;;;;4996025;28;20049;-70
2023/11/11 07:09:57;;;;;;;33.47;22.90;;;8.30;99.90;;;;;;4994575;28;20407;-69
2023/11/11 07:12:23;;;;;;;32.80;23.23;;;8.30;99.90;;;;;;4995500;28;20050;-70
2023/11/11 07:14:49;;;;;;;29.27;19.88;;;8.20;99.90;;;;;;4995657;28;20051;-70
2023/11/11 07:17:15;;;;;;;34.08;19.48;;;8.20;99.90;;;;;;4994012;28;20061;-70
2023/11/11 07:19:41;;;;;;;32.92;19.13;;;8.30;99.90;;;;;;4994533;28;20027;-70
2023/11/11 07:22:08;;;;;;;29.10;18.50;;;8.30;99.90;;;;;;4995636;28;20030;-70
2023/11/11 07:24:34;;;;;;;27.35;17.55;;;8.30;99.90;;;;;;4994320;28;20054;-71
2023/11/11 07:27:01;;;;;;;26.83;18.33;;;8.30;99.90;;;;;;4995619;28;20387;-70
2023/11/11 07:29:28;;;;;;;28.67;18.25;;;8.30;99.90;;;;;;4995578;28;20054;-69
2023/11/11 07:31:55;;;;;;;27.25;19.52;;;8.40;99.90;;;;;;4995019;28;20038;-70
2023/11/11 07:34:21;;;;;;;31.55;19.85;;;8.40;99.90;;;;;;4994158;28;20042;-70
2023/11/11 07:36:47;;;;;;;31.38;20.63;;;8.40;99.90;;;;;;4995315;28;20030;-70
2023/11/11 07:39:14;;;;;;;26.38;20.02;;;8.40;99.90;;;;;;4995337;28;20042;-70
2023/11/11 07:41:40;;;;;;;29.15;19.83;;;8.40;99.90;;;;;;4995010;28;20038;-70
2023/11/11 07:44:06;;;;;;;31.83;21.85;;;8.50;99.90;;;;;;4995313;28;20049;-69
2023/11/11 07:46:32;;;;;;;28.15;21.90;;;8.50;99.90;;;;;;4994394;28;20073;-73
2023/11/11 07:49:02;;;;;;;29.58;21.33;;;8.50;99.90;;;;;;4993965;28;20034;-73
2023/11/11 07:51:28;;;;;;;35.03;21.95;;;8.60;99.90;;;;;;4994747;28;20038;-73
2023/11/11 07:53:54;;;;;;;34.20;23.02;;;8.60;99.90;;;;;;4995132;28;20037;-73
2023/11/11 07:56:20;;;;;;;28.45;19.95;;;8.60;99.90;;;;;;5003785;28;20030;-73
2023/11/11 07:58:52;;;;;;;26.38;22.75;;;8.60;99.90;;;;;;5014766;28;20028;-73
2023/11/11 08:01:22;;;;;;;26.85;18.90;;;8.70;99.90;;;;;;5013562;28;20034;-73
2023/11/11 08:03:48;;;;;;;26.58;21.83;;;8.70;99.90;;;;;;5014288;28;20505;-73
2023/11/11 08:06:14;;;;;;;29.52;22.73;;;8.80;99.90;;;;;;5012913;28;20037;-73
2023/11/11 08:08:41;;;;;;;29.40;21.75;;;8.80;99.90;;;;;;5012997;28;20114;-73
2023/11/11 08:11:11;;;;;;;31.15;21.75;;;8.80;99.90;;;;;;5013617;28;20045;-73
2023/11/11 08:13:37;;;;;;;26.07;21.07;;;8.90;99.90;;;;;;5014534;28;20026;-73
2023/11/11 08:16:04;;;;;;;27.48;21.70;;;8.90;99.90;;;;;;5013381;28;20288;-73
2023/11/11 08:18:30;;;;;;;28.30;22.98;;;8.90;99.90;;;;;;5014281;28;20491;-73
2023/11/11 08:20:56;;;;;;;29.25;22.83;;;9.00;99.90;;;;;;5013784;28;20045;-73
2023/11/11 08:23:24;;;;;;;28.83;21.98;;;9.00;99.90;;;;;;5013862;28;20387;-73
2023/11/11 08:25:50;;;;;;;27.25;24.45;;;9.00;99.90;;;;;;5013107;28;20037;-72
2023/11/11 08:28:16;;;;;;;27.95;24.33;;;9.10;99.90;;;;;;5014138;28;20053;-73
2023/11/11 08:30:44;;;;;;;26.98;21.90;;;9.00;99.90;;;;;;5012775;28;20053;-73
2023/11/11 08:33:11;;;;;;;29.60;21.98;;;9.00;99.90;;;;;;5013634;28;20046;-73
2023/11/11 08:35:37;;;;;;;28.58;23.10;;;9.10;99.90;;;;;;5013726;28;20045;-73
2023/11/11 08:38:03;;;;;;;31.33;26.55;;;9.20;99.90;;;;;;5013918;28;20040;-73
2023/11/11 08:40:29;;;;;;;29.75;23.92;;;9.20;99.90;;;;;;5013154;28;20037;-73
2023/11/11 08:42:55;;;;;;;31.42;25.95;;;9.30;99.90;;;;;;5013812;28;20383;-73
2023/11/11 08:45:21;;;;;;;31.42;27.17;;;9.30;99.90;;;;;;5012689;28;20037;-73
2023/11/11 08:47:48;;;;;;;26.00;23.50;;;9.30;99.90;;;;;;5013701;28;20462;-73
2023/11/11 08:50:14;;;;;;;32.78;23.25;;;9.40;99.90;;;;;;5012941;28;20061;-73
2023/11/11 08:52:43;;;;;;;33.05;25.80;;;9.50;99.90;;;;;;5013475;28;20041;-73
2023/11/11 08:55:10;;;;;;;39.60;26.95;;;9.50;99.90;;;;;;5011406;28;20050;-73
2023/11/11 08:57:36;;;;;;;43.13;31.13;;;9.60;99.90;;;;;;4974825;28;20047;-73
2023/11/11 09:00:07;;;;;;;37.40;29.02;;;9.70;99.90;;;;;;4973892;28;20038;-71
2023/11/11 09:02:34;;;;;;;41.38;36.78;;;9.80;99.90;;;;;;4993174;28;20035;-73
2023/11/11 09:05:01;;;;;;;43.28;38.97;;;9.90;99.90;;;;;;4993869;28;20065;-73
2023/11/11 09:07:27;;;;;;;30.00;24.15;;;10.00;99.90;;;;;;4993295;28;20041;-73
2023/11/11 09:09:54;;;;;;;33.15;25.23;;;10.10;99.90;;;;;;4993733;28;20058;-73
2023/11/11 09:12:20;;;;;;;32.67;28.90;;;10.10;99.90;;;;;;4993457;28;20054;-73
2023/11/11 09:14:46;;;;;;;28.02;22.98;;;10.10;99.90;;;;;;4993512;28;20030;-73
2023/11/11 09:17:12;;;;;;;32.67;23.60;;;10.20;99.90;;;;;;4992526;28;20034;-73
2023/11/11 09:19:38;;;;;;;35.38;25.98;;;10.20;99.90;;;;;;4993830;28;20403;-73
2023/11/11 09:22:05;;;;;;;34.28;24.65;;;10.30;99.90;;;;;;4993063;28;20030;-73
2023/11/11 09:24:31;;;;;;;28.30;22.98;;;10.40;99.90;;;;;;4992907;28;20054;-73
2023/11/11 09:26:57;;;;;;;35.00;28.95;;;10.40;99.90;;;;;;4992019;28;20038;-73
2023/11/11 09:29:23;;;;;;;33.15;28.58;;;10.40;99.90;;;;;;4993686;28;20054;-73
2023/11/11 09:31:50;;;;;;;32.55;27.27;;;10.40;99.90;;;;;;4992397;28;20522;-73
2023/11/11 09:34:16;;;;;;;36.67;33.28;;;10.50;99.90;;;;;;4993169;28;20034;-73
2023/11/11 09:36:44;;;;;;;32.45;29.15;;;10.60;99.90;;;;;;4993046;28;20385;-73
2023/11/11 09:39:13;;;;;;;39.13;28.52;;;10.60;99.90;;;;;;4993142;28;20399;-73
2023/11/11 09:41:40;;;;;;;30.38;26.95;;;10.70;99.90;;;;;;4993012;28;20054;-73
2023/11/11 09:44:06;;;;;;;30.98;24.80;;;10.80;99.90;;;;;;4991832;28;20030;-72
2023/11/11 09:46:38;;;;;;;33.30;25.02;;;10.90;99.90;;;;;;4992328;28;20483;-73
2023/11/11 09:49:04;;;;;;;31.70;25.83;;;10.90;99.90;;;;;;4991921;28;20373;-72
2023/11/11 09:51:32;;;;;;;30.35;26.10;;;10.90;99.90;;;;;;4991676;28;20057;-73
2023/11/11 09:53:59;;;;;;;32.90;29.42;;;11.00;99.90;;;;;;4991534;28;20072;-73
2023/11/11 09:56:25;;;;;;;33.72;30.23;;;10.90;99.90;;;;;;5001416;28;20038;-73
2023/11/11 09:58:52;;;;;;;35.15;31.40;;;10.90;99.90;;;;;;5012746;28;20458;-73
2023/11/11 10:01:18;;;;;;;30.83;27.80;;;11.00;99.90;;;;;;5011548;28;20038;-73
2023/11/11 10:03:44;;;;;;;31.00;27.42;;;11.10;99.90;;;;;;5012409;28;20034;-72
2023/11/11 10:06:10;;;;;;;36.85;29.20;;;11.10;99.90;;;;;;5012111;28;20029;-73
2023/11/11 10:08:37;;;;;;;27.88;25.20;;;11.20;99.90;;;;;;5012346;28;20391;-73
2023/11/11 10:11:05;;;;;;;29.73;26.75;;;11.20;99.90;;;;;;5011770;28;20042;-72
2023/11/11 10:13:32;;;;;;;29.77;25.15;;;11.10;99.90;;;;;;5012378;28;20033;-74
2023/11/11 10:16:11;;;;;;;29.17;24.75;;;11.20;99.90;;;;;;5010408;28;20049;-73
2023/11/11 10:18:37;;;;;;;38.03;23.15;;;11.30;99.90;;;;;;5012417;28;20391;-73
2023/11/11 10:21:06;;;;;;;36.47;26.38;;;11.30;99.90;;;;;;5011711;28;20049;-72
2023/11/11 10:23:33;;;;;;;40.42;33.83;;;11.30;99.90;;;;;;5011608;28;20470;-73
2023/11/11 10:25:59;;;;;;;35.83;32.35;;;11.20;99.90;;;;;;5011898;28;20038;-74
2023/11/11 10:28:25;;;;;;;33.38;27.73;;;11.20;99.90;;;;;;5013698;28;20033;-74
2023/11/11 10:30:52;;;;;;;31.50;24.15;;;11.20;99.90;;;;;;5015321;28;20049;-73
2023/11/11 10:33:18;;;;;;;24.75;21.98;;;11.30;99.90;;;;;;5016054;28;20483;-73
2023/11/11 10:35:45;;;;;;;30.67;23.65;;;11.40;99.90;;;;;;5015392;28;20030;-72
2023/11/11 10:38:11;;;;;;;33.08;29.90;;;11.40;99.90;;;;;;5016036;28;20386;-73
2023/11/11 10:40:37;;;;;;;33.83;29.85;;;11.40;99.90;;;;;;5015592;28;20022;-72
2023/11/11 10:43:04;;;;;;;35.20;31.73;;;11.40;99.90;;;;;;5015994;28;20513;-72
2023/11/11 10:45:32;;;;;;;36.22;32.85;;;11.40;99.90;;;;;;5014984;28;20038;-72
2023/11/11 10:47:58;;;;;;;39.88;35.95;;;11.50;99.90;;;;;;5014406;28;20075;-72
2023/11/11 10:50:24;;;;;;;40.72;37.08;;;11.50;99.90;;;;;;5012973;28;20402;-71
2023/11/11 10:52:51;;;;;;;32.28;29.10;;;11.50;99.90;;;;;;5014590;28;20030;-71
2023/11/11 10:55:17;;;;;;;35.90;32.22;;;11.60;99.90;;;;;;5011661;28;20038;-72
2023/11/11 10:57:43;;;;;;;42.95;39.15;;;11.70;99.90;;;;;;4996220;28;20027;-71
2023/11/11 11:00:20;;;;;;;41.25;37.83;;;11.70;99.90;;;;;;4994064;28;20049;-73
2023/11/11 11:02:50;;;;;;;41.03;37.53;;;11.80;99.90;;;;;;4976676;28;20365;-73
2023/11/11 11:05:50;;;;;;;44.72;40.35;;;11.90;99.90;;;;;;4976608;28;20360;-72
2023/11/11 11:08:26;;;;;;;44.58;40.65;;;11.90;99.90;;;;;;4995144;28;20388;-73
2023/11/11 11:11:25;;;;;;;48.22;44.22;;;11.90;99.90;;;;;;4995783;28;20050;-72
2023/11/11 11:13:52;;;;;;;44.85;40.83;;;12.00;99.90;;;;;;4994591;28;20045;-72
2023/11/11 11:16:30;;;;;;;47.58;43.20;;;12.00;99.90;;;;;;4993842;28;20039;-72
2023/11/11 11:18:56;;;;;;;44.72;40.83;;;12.00;99.90;;;;;;4995817;28;20030;-72
2023/11/11 11:21:27;;;;;;;41.53;38.15;;;12.00;99.90;;;;;;4995198;28;20149;-72
2023/11/11 11:23:54;;;;;;;43.15;39.40;;;12.00;99.90;;;;;;4995720;28;20038;-72
2023/11/11 11:26:27;;;;;;;45.72;41.70;;;12.00;99.90;;;;;;4995286;28;20041;-72
2023/11/11 11:29:16;;;;;;;43.63;39.95;;;12.10;99.90;;;;;;4995841;28;20037;-72
2023/11/11 11:32:02;;;;;;;41.15;37.78;;;12.20;99.90;;;;;;4994822;28;20042;-73
2023/11/11 11:34:29;;;;;;;39.13;35.30;;;12.20;99.90;;;;;;4995115;28;20033;-73
2023/11/11 11:36:55;;;;;;;41.67;37.55;;;12.20;99.90;;;;;;4995256;28;20034;-72
2023/11/11 11:39:27;;;;;;;42.45;38.75;;;12.30;99.90;;;;;;4995407;28;20388;-72
2023/11/11 11:42:17;;;;;;;40.28;36.92;;;12.40;99.90;;;;;;4995113;28;20510;-72
2023/11/11 11:44:55;;;;;;;59.87;54.80;;;12.40;99.90;;;;;;4994038;28;20053;-72
2023/11/11 11:47:22;;;;;;;58.03;53.72;;;12.40;99.90;;;;;;4993269;28;20274;-72
2023/11/11 11:49:49;;;;;;;65.85;60.78;;;12.50;99.90;;;;;;4993712;28;20035;-72
2023/11/11 11:52:17;;;;;;;67.25;62.40;;;12.50;99.90;;;;;;4994647;28;20042;-72
2023/11/11 11:54:43;;;;;;;68.65;63.88;;;12.60;99.90;;;;;;4995660;28;20042;-72
2023/11/11 11:57:10;;;;;;;67.22;62.33;;;12.60;99.90;;;;;;5010389;28;20386;-73
2023/11/11 11:59:36;;;;;;;60.53;55.85;;;12.60;99.90;;;;;;5014241;28;20072;-73
2023/11/11 12:02:02;;;;;;;68.13;62.70;;;12.50;99.90;;;;;;5012276;28;20052;-72
2023/11/11 12:04:28;;;;;;;62.33;58.03;;;12.50;99.90;;;;;;5014113;28;20037;-73
2023/11/11 12:06:57;;;;;;;67.32;62.97;;;12.50;99.90;;;;;;5014014;28;20034;-73
2023/11/11 12:09:23;;;;;;;55.47;51.13;;;12.50;99.90;;;;;;5013507;28;20046;-73
2023/11/11 12:11:49;;;;;;;62.42;57.65;;;12.50;99.90;;;;;;5013770;28;20034;-72
2023/11/11 12:14:17;;;;;;;48.47;43.70;;;12.50;99.90;;;;;;5014392;28;20022;-73
2023/11/11 12:16:47;;;;;;;49.50;44.72;;;12.50;99.90;;;;;;5013261;28;20414;-72
2023/11/11 12:19:14;;;;;;;46.60;42.33;;;12.50;99.90;;;;;;5014141;28;20041;-73
2023/11/11 12:21:42;;;;;;;47.15;42.67;;;12.40;99.90;;;;;;5013718;28;20269;-73
2023/11/11 12:24:12;;;;;;;50.08;45.75;;;12.40;99.90;;;;;;5012770;28;20046;-73
2023/11/11 12:26:39;;;;;;;52.17;47.50;;;12.50;99.90;;;;;;5013717;28;20037;-73
2023/11/11 12:29:05;;;;;;;49.40;45.55;;;12.40;99.90;;;;;;5014012;28;20371;-72
2023/11/11 12:31:32;;;;;;;50.00;45.25;;;12.30;99.90;;;;;;5010954;28;20053;-72
2023/11/11 12:33:58;;;;;;;52.22;48.13;;;12.30;99.90;;;;;;5014050;28;20046;-73